Time;durP1;ratioP1;P1;durP2;ratioP2;P2;SDS_P1;SDS_P2;PMS_P1;PMS_P2;Temp;Humidity;BMP_temperature;BMP_pressure;BME280_temperature;BME280_humidity;BME280_pressure;Samples;Min_cycle;Max_cycle;Signal;HPM_P1;HPM_P2
2022/09/17 00:00:09;;;;;;;12.07;2.50;;;11.60;99.90;;;;;;3057812;19;20736;-69
2022/09/17 00:01:18;;;;;;;13.23;2.55;;;11.40;99.90;;;;;;3057813;19;20077;-69
2022/09/17 00:02:24;;;;;;;19.55;2.70;;;11.60;99.90;;;;;;3057916;19;20011;-69
2022/09/17 00:03:27;;;;;;;15.57;2.30;;;11.80;99.90;;;;;;3057806;19;20010;-69
2022/09/17 00:04:31;;;;;;;18.77;2.67;;;11.50;99.90;;;;;;3057798;19;20031;-69
2022/09/17 00:05:32;;;;;;;16.38;2.70;;;11.90;99.90;;;;;;3057609;19;20025;-69
2022/09/17 00:06:37;;;;;;;13.55;2.83;;;11.60;99.90;;;;;;3057642;19;20011;-69
2022/09/17 00:07:38;;;;;;;14.02;2.22;;;11.70;99.90;;;;;;3057517;19;20013;-69
2022/09/17 00:08:43;;;;;;;19.10;3.00;;;11.60;99.90;;;;;;3056730;19;20041;-69
2022/09/17 00:09:45;;;;;;;16.88;2.63;;;11.60;99.90;;;;;;3058907;19;20018;-70
2022/09/17 00:10:49;;;;;;;17.77;2.60;;;11.60;99.90;;;;;;3060268;19;20011;-69
2022/09/17 00:11:52;;;;;;;16.17;2.45;;;11.50;99.90;;;;;;3060690;19;20011;-69
2022/09/17 00:12:54;;;;;;;11.52;2.15;;;11.80;99.90;;;;;;3060824;19;19995;-69
2022/09/17 00:14:00;;;;;;;;;;;11.60;99.90;;;;;;3061505;19;20382;-69
2022/09/17 00:15:05;;;;;;;14.93;2.40;;;11.20;99.90;;;;;;3060567;19;19919;-69
2022/09/17 00:16:09;;;;;;;17.75;3.13;;;11.50;99.90;;;;;;3060585;19;20154;-69
2022/09/17 00:17:13;;;;;;;13.77;2.33;;;11.50;99.90;;;;;;3060203;19;20006;-69
2022/09/17 00:18:14;;;;;;;19.63;3.15;;;11.50;99.90;;;;;;3060680;19;20007;-69
2022/09/17 00:19:22;;;;;;;16.88;3.28;;;11.90;99.90;;;;;;3060794;19;20014;-69
2022/09/17 00:20:24;;;;;;;13.57;2.50;;;11.60;99.90;;;;;;3060280;19;20489;-70
2022/09/17 00:21:27;;;;;;;;;;;11.80;99.90;;;;;;3061460;19;20003;-69
2022/09/17 00:22:29;;;;;;;16.02;2.53;;;11.50;99.90;;;;;;3060432;19;19915;-69
2022/09/17 00:23:32;;;;;;;13.65;2.55;;;11.70;99.90;;;;;;3060510;19;20006;-71
2022/09/17 00:24:34;;;;;;;15.80;2.60;;;11.50;99.90;;;;;;3060298;19;20048;-69
2022/09/17 00:25:40;;;;;;;14.40;2.65;;;11.70;99.90;;;;;;3060748;19;20090;-70
2022/09/17 00:26:44;;;;;;;12.68;2.42;;;11.40;99.90;;;;;;3060920;19;20011;-70
2022/09/17 00:27:46;;;;;;;13.50;2.45;;;11.40;99.90;;;;;;3060667;19;20075;-69
2022/09/17 00:28:51;;;;;;;11.90;2.65;;;11.50;99.90;;;;;;3059412;19;20015;-69
2022/09/17 00:29:53;;;;;;;11.23;2.38;;;11.40;99.90;;;;;;3060853;19;20010;-69
2022/09/17 00:30:59;;;;;;;20.58;3.50;;;11.70;99.90;;;;;;3060298;19;20037;-69
2022/09/17 00:32:03;;;;;;;15.93;2.05;;;11.40;99.90;;;;;;3060757;19;20009;-70
2022/09/17 00:33:05;;;;;;;13.07;2.70;;;11.50;99.90;;;;;;3060270;19;20010;-69
2022/09/17 00:34:10;;;;;;;13.82;2.90;;;11.50;99.90;;;;;;3060528;19;20389;-69
2022/09/17 00:35:12;;;;;;;11.73;2.38;;;11.50;99.90;;;;;;3061106;19;20010;-70
2022/09/17 00:36:20;;;;;;;9.85;2.35;;;11.50;99.90;;;;;;3060247;19;20016;-69
2022/09/17 00:37:21;;;;;;;14.85;2.40;;;11.40;99.90;;;;;;3060241;19;20015;-69
2022/09/17 00:38:25;;;;;;;14.27;1.80;;;11.40;99.90;;;;;;3060840;19;20007;-69
2022/09/17 00:39:29;;;;;;;15.63;2.40;;;;;;;;;;3060170;19;20363;-69
2022/09/17 00:40:31;;;;;;;15.18;2.65;;;11.40;99.90;;;;;;3060401;19;20509;-69
2022/09/17 00:41:36;;;;;;;16.25;2.83;;;11.30;99.90;;;;;;3059956;19;20584;-69
2022/09/17 00:42:37;;;;;;;12.00;1.75;;;11.40;99.90;;;;;;3060355;19;20467;-69
2022/09/17 00:43:45;;;;;;;12.68;1.83;;;11.70;99.90;;;;;;3060191;19;20018;-69
2022/09/17 00:44:50;;;;;;;10.38;1.75;;;11.20;99.90;;;;;;3060503;19;20025;-69
2022/09/17 00:45:54;;;;;;;8.30;2.40;;;11.40;99.90;;;;;;3060301;19;20003;-69
2022/09/17 00:46:57;;;;;;;14.27;2.22;;;11.20;99.90;;;;;;3060083;19;20018;-70
2022/09/17 00:48:03;;;;;;;9.93;2.63;;;11.40;99.90;;;;;;3060128;19;20022;-70
2022/09/17 00:49:11;;;;;;;14.43;2.10;;;11.20;99.90;;;;;;3058981;19;20021;-69
2022/09/17 00:50:19;;;;;;;15.05;2.10;;;11.40;99.90;;;;;;3060126;19;20014;-69
2022/09/17 00:51:29;;;;;;;10.90;1.80;;;11.50;99.90;;;;;;3060171;19;20015;-69
2022/09/17 00:52:35;;;;;;;13.32;2.22;;;11.10;99.90;;;;;;3060213;19;20038;-69
2022/09/17 00:53:38;;;;;;;12.60;2.42;;;11.30;99.90;;;;;;3060166;19;20022;-69
2022/09/17 00:54:47;;;;;;;14.38;2.00;;;11.20;99.90;;;;;;3059988;19;20006;-69
2022/09/17 00:55:53;;;;;;;13.93;2.22;;;11.50;99.90;;;;;;3059956;19;20014;-69
2022/09/17 00:56:59;;;;;;;10.85;2.42;;;11.30;99.90;;;;;;3060517;19;20081;-69
2022/09/17 00:58:04;;;;;;;11.32;2.10;;;11.40;99.90;;;;;;3060010;19;20014;-69
2022/09/17 00:59:09;;;;;;;19.85;2.40;;;11.10;99.90;;;;;;3059323;19;20440;-70
2022/09/17 01:00:13;;;;;;;11.00;2.30;;;11.30;99.90;;;;;;3059177;19;20031;-69
2022/09/17 01:01:17;;;;;;;11.70;2.33;;;11.40;99.90;;;;;;3060244;19;20082;-69
2022/09/17 01:02:22;;;;;;;12.32;2.30;;;11.40;99.90;;;;;;3059966;19;20491;-69
2022/09/17 01:03:26;;;;;;;10.55;2.10;;;11.60;99.90;;;;;;3060394;19;20010;-70
2022/09/17 01:04:27;;;;;;;11.00;2.00;;;11.30;99.90;;;;;;3059999;19;20006;-69
2022/09/17 01:05:37;;;;;;;10.85;1.88;;;11.00;99.90;;;;;;3060211;19;20014;-69
2022/09/17 01:06:45;;;;;;;13.48;3.05;;;11.00;99.90;;;;;;3059838;19;20023;-70
2022/09/17 01:08:07;;;;;;;10.85;2.00;;;11.30;99.90;;;;;;3060255;19;20006;-69
2022/09/17 01:09:21;;;;;;;14.73;2.20;;;11.30;99.90;;;;;;3059366;19;20006;-69
2022/09/17 01:10:40;;;;;;;14.23;2.17;;;11.20;99.90;;;;;;3059972;19;20017;-69
2022/09/17 01:12:00;;;;;;;14.13;2.10;;;11.30;99.90;;;;;;3060198;19;20022;-69
2022/09/17 01:13:12;;;;;;;14.40;2.30;;;11.00;99.90;;;;;;3059865;19;20015;-69
2022/09/17 01:14:27;;;;;;;20.48;2.35;;;11.30;99.90;;;;;;3060181;19;20018;-69
2022/09/17 01:15:39;;;;;;;13.30;2.42;;;11.60;99.90;;;;;;3059384;19;20035;-69
2022/09/17 01:16:50;;;;;;;17.85;2.20;;;11.40;99.90;;;;;;3060049;19;20018;-69
2022/09/17 01:18:10;;;;;;;14.37;2.40;;;11.70;99.90;;;;;;3059729;19;20014;-70
2022/09/17 01:19:42;;;;;;;20.45;2.22;;;11.20;99.90;;;;;;3059856;19;20003;-69
2022/09/17 01:21:17;;;;;;;15.88;2.58;;;11.60;99.90;;;;;;3057380;19;20013;-70
2022/09/17 01:22:29;;;;;;;11.63;2.20;;;11.20;99.90;;;;;;3059333;19;20014;-69
2022/09/17 01:23:53;;;;;;;12.37;2.00;;;11.20;99.90;;;;;;3059870;19;20002;-70
2022/09/17 01:25:18;;;;;;;7.30;2.15;;;11.60;99.90;;;;;;3059854;19;20274;-69
2022/09/17 01:26:41;;;;;;;11.43;2.35;;;11.20;99.90;;;;;;3059993;19;20406;-69
2022/09/17 01:28:18;;;;;;;12.82;2.10;;;11.10;99.90;;;;;;3059776;19;20024;-70
2022/09/17 01:29:40;;;;;;;8.75;1.80;;;11.20;99.90;;;;;;3058486;19;20029;-69
2022/09/17 01:31:16;;;;;;;14.45;2.28;;;11.20;99.90;;;;;;3059656;19;20010;-69
2022/09/17 01:32:24;;;;;;;9.00;2.10;;;11.20;99.90;;;;;;3059636;19;19998;-69
2022/09/17 01:33:36;;;;;;;10.45;2.38;;;11.50;99.90;;;;;;3059454;19;20018;-70
2022/09/17 01:34:46;;;;;;;11.45;2.10;;;11.50;99.90;;;;;;3060017;19;20502;-69
2022/09/17 01:35:58;;;;;;;11.30;2.38;;;11.10;99.90;;;;;;3059646;19;20031;-70
2022/09/17 01:37:06;;;;;;;9.35;2.38;;;11.10;99.90;;;;;;3059723;19;20006;-69
2022/09/17 01:38:16;;;;;;;14.50;2.28;;;11.20;99.90;;;;;;3059469;19;20369;-69
2022/09/17 01:39:35;;;;;;;9.98;1.80;;;11.30;99.90;;;;;;3059593;19;20070;-69
2022/09/17 01:40:44;;;;;;;15.43;2.58;;;11.10;99.90;;;;;;3059732;19;20066;-69
2022/09/17 01:41:55;;;;;;;10.50;2.15;;;11.10;99.90;;;;;;3059625;19;20010;-70
2022/09/17 01:43:04;;;;;;;13.73;2.10;;;11.30;99.90;;;;;;3059611;19;20018;-69
2022/09/17 01:44:13;;;;;;;16.63;2.40;;;11.10;99.90;;;;;;3059317;19;20019;-69
2022/09/17 01:45:20;;;;;;;11.30;2.15;;;10.90;99.90;;;;;;3059529;19;20006;-69
2022/09/17 01:46:32;;;;;;;12.00;2.15;;;10.90;99.90;;;;;;3059293;19;20382;-69
2022/09/17 01:47:37;;;;;;;7.40;1.95;;;11.00;99.90;;;;;;3058882;19;20007;-69
2022/09/17 01:48:44;;;;;;;10.10;1.90;;;11.00;99.90;;;;;;3059234;19;20010;-69
2022/09/17 01:49:46;;;;;;;9.65;2.00;;;11.00;99.90;;;;;;3059353;19;20015;-69
2022/09/17 01:50:58;;;;;;;12.30;1.63;;;11.10;99.90;;;;;;3059546;19;20006;-69
2022/09/17 01:52:01;;;;;;;13.38;2.50;;;11.10;99.90;;;;;;3059484;19;20015;-69
2022/09/17 01:53:07;;;;;;;7.85;1.92;;;11.10;99.90;;;;;;3059475;19;20006;-69
2022/09/17 01:54:16;;;;;;;9.55;1.85;;;11.10;99.90;;;;;;3059413;19;20021;-69
2022/09/17 01:55:22;;;;;;;11.60;2.00;;;11.10;99.90;;;;;;3059265;19;20019;-69
2022/09/17 01:56:34;;;;;;;9.40;1.83;;;11.10;99.90;;;;;;3059259;19;20015;-69
2022/09/17 01:57:43;;;;;;;14.93;2.00;;;11.00;99.90;;;;;;3059374;19;20078;-69
2022/09/17 01:58:50;;;;;;;9.18;1.90;;;11.10;99.90;;;;;;3059105;19;20369;-69
2022/09/17 01:59:59;;;;;;;12.43;2.58;;;11.10;99.90;;;;;;3059273;19;20474;-69
2022/09/17 02:01:05;;;;;;;9.85;2.42;;;11.10;99.90;;;;;;3059321;19;20002;-69
2022/09/17 02:02:17;;;;;;;14.25;2.70;;;10.90;99.90;;;;;;3059385;19;20009;-69
2022/09/17 02:03:22;;;;;;;9.75;2.17;;;11.40;99.90;;;;;;3059217;19;20497;-69
2022/09/17 02:04:30;;;;;;;8.38;1.80;;;11.00;99.90;;;;;;3059285;19;20031;-69
2022/09/17 02:05:36;;;;;;;12.95;2.22;;;10.70;99.90;;;;;;3059097;19;20466;-69
2022/09/17 02:06:44;;;;;;;11.93;2.03;;;10.80;99.90;;;;;;3059204;19;20006;-69
2022/09/17 02:07:51;;;;;;;11.25;2.00;;;10.70;99.90;;;;;;3059469;19;20009;-69
2022/09/17 02:08:58;;;;;;;13.07;2.80;;;11.10;99.90;;;;;;3058762;19;20015;-69
2022/09/17 02:10:04;;;;;;;13.32;2.03;;;10.90;99.90;;;;;;3059189;19;20379;-69
2022/09/17 02:11:13;;;;;;;18.00;2.30;;;10.90;99.90;;;;;;3058399;19;20018;-69
2022/09/17 02:12:19;;;;;;;7.72;1.90;;;11.00;99.90;;;;;;3059145;19;20015;-69
2022/09/17 02:13:29;;;;;;;13.25;2.15;;;10.70;99.90;;;;;;3059043;19;20007;-69
2022/09/17 02:14:35;;;;;;;15.00;1.95;;;11.10;99.90;;;;;;3059217;19;20352;-69
2022/09/17 02:15:45;;;;;;;10.73;2.05;;;11.00;99.90;;;;;;3058166;19;20501;-69
2022/09/17 02:16:52;;;;;;;9.63;2.03;;;11.00;99.90;;;;;;3058857;19;20356;-68
2022/09/17 02:18:02;;;;;;;11.95;1.60;;;10.80;99.90;;;;;;3058650;19;20011;-69
2022/09/17 02:19:08;;;;;;;12.40;2.10;;;11.10;99.90;;;;;;3058893;19;20353;-69
2022/09/17 02:20:13;;;;;;;12.10;1.92;;;11.00;99.90;;;;;;3059050;19;20524;-68
2022/09/17 02:21:20;;;;;;;9.38;2.05;;;11.00;99.90;;;;;;3058749;19;20018;-69
2022/09/17 02:22:29;;;;;;;11.32;2.10;;;11.30;99.90;;;;;;3058176;19;20015;-69
2022/09/17 02:23:35;;;;;;;13.50;2.22;;;11.00;99.90;;;;;;3058195;19;20011;-69
2022/09/17 02:24:46;;;;;;;12.00;2.30;;;11.00;99.90;;;;;;3059218;19;20002;-69
2022/09/17 02:25:52;;;;;;;14.02;2.30;;;11.00;99.90;;;;;;3058730;19;20053;-69
2022/09/17 02:27:04;;;;;;;13.90;2.72;;;11.00;99.90;;;;;;3059084;19;20010;-69
2022/09/17 02:28:14;;;;;;;15.50;2.10;;;10.90;99.90;;;;;;3058918;19;20027;-69
2022/09/17 02:29:25;;;;;;;13.48;2.05;;;10.90;99.90;;;;;;3058560;19;20006;-68
2022/09/17 02:30:27;;;;;;;13.00;2.10;;;10.90;99.90;;;;;;3058947;19;20021;-69
2022/09/17 02:31:31;;;;;;;11.55;1.77;;;11.10;99.90;;;;;;3058768;19;20006;-69
2022/09/17 02:32:32;;;;;;;16.20;2.53;;;10.80;99.90;;;;;;3056391;19;20014;-69
2022/09/17 02:33:42;;;;;;;10.10;2.33;;;11.00;99.90;;;;;;3058019;19;20010;-69
2022/09/17 02:34:43;;;;;;;13.02;2.50;;;10.90;99.90;;;;;;3060481;19;20369;-71
2022/09/17 02:35:48;;;;;;;15.60;2.55;;;10.70;99.90;;;;;;3058866;19;20022;-70
2022/09/17 02:36:50;;;;;;;10.18;1.90;;;;;;;;;;3059128;19;20006;-69
2022/09/17 02:37:54;;;;;;;14.15;2.63;;;10.80;99.90;;;;;;3058567;19;20025;-71
2022/09/17 02:39:00;;;;;;;15.82;2.58;;;10.90;99.90;;;;;;3058458;19;20494;-71
2022/09/17 02:40:05;;;;;;;8.02;1.77;;;11.00;99.90;;;;;;3058726;19;20297;-71
2022/09/17 02:41:19;;;;;;;12.50;2.33;;;10.90;99.90;;;;;;3058852;19;20011;-71
2022/09/17 02:42:30;;;;;;;13.27;2.30;;;11.10;99.90;;;;;;3058448;19;20027;-70
2022/09/17 02:43:39;;;;;;;17.17;2.95;;;10.80;99.90;;;;;;3058840;19;20028;-71
2022/09/17 02:44:54;;;;;;;13.88;2.30;;;10.80;99.90;;;;;;3058717;19;20010;-71
2022/09/17 02:46:12;;;;;;;10.80;2.08;;;10.80;99.90;;;;;;3058519;19;20097;-70
2022/09/17 02:47:39;;;;;;;15.63;2.90;;;11.10;99.90;;;;;;3058098;19;20011;-71
2022/09/17 02:49:20;;;;;;;14.13;2.30;;;10.80;99.90;;;;;;3058331;19;20015;-71
2022/09/17 02:50:33;;;;;;;11.98;1.90;;;11.10;99.90;;;;;;3058472;19;20057;-69
2022/09/17 02:51:47;;;;;;;12.13;2.10;;;10.80;99.90;;;;;;3058393;19;20011;-69
2022/09/17 02:52:59;;;;;;;17.73;2.15;;;10.70;99.90;;;;;;3058592;19;20019;-69
2022/09/17 02:54:15;;;;;;;12.30;2.30;;;10.70;99.90;;;;;;3058391;19;20013;-70
2022/09/17 02:55:23;;;;;;;14.63;2.28;;;10.80;99.90;;;;;;3058402;19;20101;-70
2022/09/17 02:56:37;;;;;;;12.15;2.35;;;10.70;99.90;;;;;;3058445;19;20014;-70
2022/09/17 02:57:44;;;;;;;13.10;2.35;;;10.90;99.90;;;;;;3058443;19;20345;-70
2022/09/17 02:58:54;;;;;;;10.88;2.10;;;10.80;99.90;;;;;;3058469;19;20017;-70
2022/09/17 03:00:02;;;;;;;14.57;2.40;;;11.10;99.90;;;;;;3058330;19;20040;-69
2022/09/17 03:01:14;;;;;;;10.02;2.00;;;10.80;99.90;;;;;;3058302;19;20379;-70
2022/09/17 03:02:17;;;;;;;;;;;10.80;99.90;;;;;;3059460;19;20101;-69
2022/09/17 03:03:27;;;;;;;12.90;2.47;;;10.70;99.90;;;;;;3058144;19;19941;-70
2022/09/17 03:04:32;;;;;;;13.30;2.72;;;10.70;99.90;;;;;;3058337;19;20377;-69
2022/09/17 03:05:38;;;;;;;13.57;2.80;;;10.60;99.90;;;;;;3058247;19;20387;-70
2022/09/17 03:06:39;;;;;;;9.65;1.88;;;10.50;99.90;;;;;;3058468;19;20014;-70
2022/09/17 03:07:46;;;;;;;11.93;2.05;;;10.50;99.90;;;;;;3058222;19;20087;-70
2022/09/17 03:08:48;;;;;;;15.27;2.92;;;10.30;99.90;;;;;;3058549;19;20070;-69
2022/09/17 03:09:52;;;;;;;10.90;2.35;;;10.60;99.90;;;;;;3057740;19;20006;-69
2022/09/17 03:10:53;;;;;;;14.02;2.65;;;10.50;99.90;;;;;;3058169;19;20352;-69
2022/09/17 03:11:57;;;;;;;11.88;2.40;;;10.40;99.90;;;;;;3058258;19;20471;-69
2022/09/17 03:12:59;;;;;;;9.82;2.17;;;10.40;99.90;;;;;;3058465;19;19995;-70
2022/09/17 03:14:03;;;;;;;16.00;2.38;;;10.60;99.90;;;;;;3058299;19;20074;-70
2022/09/17 03:15:05;;;;;;;16.52;2.72;;;10.60;99.90;;;;;;3057952;19;20100;-69
2022/09/17 03:16:09;;;;;;;13.45;1.95;;;10.50;99.90;;;;;;3058239;19;20010;-70
2022/09/17 03:17:11;;;;;;;10.68;1.83;;;10.20;99.90;;;;;;3057940;19;20006;-70
2022/09/17 03:18:17;;;;;;;13.57;2.35;;;10.50;99.90;;;;;;3058190;19;20037;-70
2022/09/17 03:19:18;;;;;;;17.58;2.97;;;10.30;99.90;;;;;;3057357;19;20007;-70
2022/09/17 03:20:25;;;;;;;8.98;2.03;;;10.50;99.90;;;;;;3057403;19;20006;-69
2022/09/17 03:21:26;;;;;;;11.07;2.08;;;10.40;99.90;;;;;;3058299;19;20025;-70
2022/09/17 03:22:30;;;;;;;13.50;2.55;;;10.50;99.90;;;;;;3058449;19;20015;-70
2022/09/17 03:23:31;;;;;;;13.10;2.10;;;10.40;99.90;;;;;;3058418;19;20014;-69
2022/09/17 03:24:35;;;;;;;10.80;2.00;;;;;;;;;;3058011;19;19999;-70
2022/09/17 03:25:37;;;;;;;19.33;2.53;;;;;;;;;;3058040;19;20003;-69
2022/09/17 03:26:41;;;;;;;14.10;2.67;;;10.80;99.90;;;;;;3058474;19;20018;-69
2022/09/17 03:27:42;;;;;;;9.77;2.00;;;10.30;99.90;;;;;;3058161;19;20019;-70
2022/09/17 03:28:47;;;;;;;11.38;2.33;;;10.40;99.90;;;;;;3058160;19;20002;-70
2022/09/17 03:29:48;;;;;;;10.18;2.17;;;10.40;99.90;;;;;;3057410;19;20355;-70
2022/09/17 03:30:52;;;;;;;11.00;2.03;;;10.30;99.90;;;;;;3057943;19;20021;-70
2022/09/17 03:31:53;;;;;;;11.52;2.10;;;10.70;99.90;;;;;;3057216;19;20010;-69
2022/09/17 03:32:57;;;;;;;13.65;2.30;;;10.30;99.90;;;;;;3057807;19;20002;-69
2022/09/17 03:33:58;;;;;;;9.70;2.47;;;10.40;99.90;;;;;;3059060;19;20018;-69
2022/09/17 03:35:02;;;;;;;9.38;2.17;;;10.40;99.90;;;;;;3057969;19;20041;-70
2022/09/17 03:36:09;;;;;;;14.07;2.78;;;10.40;99.90;;;;;;3057968;19;20006;-69
2022/09/17 03:37:10;;;;;;;18.35;2.55;;;10.40;99.90;;;;;;3058123;19;20006;-69
2022/09/17 03:38:14;;;;;;;14.95;2.13;;;10.50;99.90;;;;;;3057987;19;20017;-69
2022/09/17 03:39:15;;;;;;;13.60;2.85;;;10.30;99.90;;;;;;3058034;19;20023;-70
2022/09/17 03:40:19;;;;;;;8.88;2.25;;;10.50;99.90;;;;;;3057834;19;20082;-70
2022/09/17 03:41:20;;;;;;;12.30;2.25;;;10.50;99.90;;;;;;3057852;19;20022;-69
2022/09/17 03:42:24;;;;;;;10.27;2.05;;;10.60;99.90;;;;;;3058113;19;20018;-69
2022/09/17 03:43:26;;;;;;;8.98;1.80;;;10.60;99.90;;;;;;3058091;19;20513;-70
2022/09/17 03:44:29;;;;;;;13.82;2.53;;;10.60;99.90;;;;;;3061162;19;20019;-70
2022/09/17 03:45:31;;;;;;;14.70;2.85;;;10.80;99.90;;;;;;3060153;19;20014;-69
2022/09/17 03:46:35;;;;;;;11.00;2.42;;;10.70;99.90;;;;;;3060231;19;20014;-70
2022/09/17 03:47:37;;;;;;;13.98;1.98;;;;;;;;;;3060848;19;20006;-70
2022/09/17 03:48:40;;;;;;;9.93;2.35;;;10.80;99.90;;;;;;3060962;19;20081;-70
2022/09/17 03:49:42;;;;;;;13.80;2.20;;;10.90;99.90;;;;;;3060616;19;20002;-70
2022/09/17 03:50:46;;;;;;;11.93;2.38;;;10.80;99.90;;;;;;3061256;19;20006;-70
2022/09/17 03:51:50;;;;;;;10.43;2.20;;;10.80;99.90;;;;;;3061049;19;20017;-70
2022/09/17 03:52:53;;;;;;;10.57;2.40;;;11.10;99.90;;;;;;3060853;19;20014;-70
2022/09/17 03:53:55;;;;;;;10.68;2.13;;;10.80;99.90;;;;;;3061050;19;20014;-69
2022/09/17 03:54:58;;;;;;;17.65;3.03;;;10.80;99.90;;;;;;3059884;19;20033;-70
2022/09/17 03:56:01;;;;;;;11.02;2.10;;;11.00;99.90;;;;;;3060462;19;20006;-70
2022/09/17 03:57:05;;;;;;;11.77;2.15;;;10.80;99.90;;;;;;3060116;19;20080;-70
2022/09/17 03:58:07;;;;;;;10.23;1.95;;;10.80;99.90;;;;;;3060077;19;20502;-70
2022/09/17 03:59:11;;;;;;;14.32;1.98;;;10.80;99.90;;;;;;3060990;19;20011;-69
2022/09/17 04:00:16;;;;;;;12.77;2.15;;;10.80;99.90;;;;;;3061180;19;20007;-70
2022/09/17 04:01:20;;;;;;;13.82;2.33;;;11.10;99.90;;;;;;3060836;19;20018;-70
2022/09/17 04:02:21;;;;;;;11.95;2.10;;;10.80;99.90;;;;;;3061076;19;20017;-69
2022/09/17 04:03:25;;;;;;;12.55;2.80;;;11.00;99.90;;;;;;3060689;19;20018;-71
2022/09/17 04:04:26;;;;;;;10.75;2.35;;;10.70;99.90;;;;;;3061011;19;20084;-70
2022/09/17 04:05:30;;;;;;;13.85;2.10;;;10.80;99.90;;;;;;3060632;19;20018;-69
2022/09/17 04:06:32;;;;;;;8.10;1.95;;;11.00;99.90;;;;;;3061484;19;20011;-70
2022/09/17 04:07:38;;;;;;;11.35;2.40;;;10.70;99.90;;;;;;3060826;19;20023;-70
2022/09/17 04:08:39;;;;;;;14.23;1.83;;;10.50;99.90;;;;;;3060940;19;20006;-70
2022/09/17 04:09:43;;;;;;;7.35;1.90;;;10.90;99.90;;;;;;3060177;19;20483;-70
2022/09/17 04:10:46;;;;;;;8.45;1.70;;;10.50;99.90;;;;;;3060354;19;20009;-69
2022/09/17 04:11:50;;;;;;;13.32;2.15;;;10.60;99.90;;;;;;3060496;19;20010;-70
2022/09/17 04:12:51;;;;;;;11.43;2.08;;;;;;;;;;3060858;19;20006;-70
2022/09/17 04:13:55;;;;;;;13.25;2.17;;;10.60;99.90;;;;;;3060591;19;20685;-70
2022/09/17 04:14:56;;;;;;;11.77;2.05;;;10.70;99.90;;;;;;3060726;19;20010;-70
2022/09/17 04:16:00;;;;;;;13.45;2.08;;;10.50;99.90;;;;;;3060589;19;20010;-69
2022/09/17 04:17:02;;;;;;;15.60;2.20;;;10.80;99.90;;;;;;3060005;19;20014;-70
2022/09/17 04:18:06;;;;;;;13.23;2.30;;;10.50;99.90;;;;;;3060508;19;20074;-69
2022/09/17 04:19:07;;;;;;;8.23;1.90;;;10.70;99.90;;;;;;3060885;19;20010;-69
2022/09/17 04:20:12;;;;;;;12.13;2.17;;;10.60;99.90;;;;;;3060637;19;20011;-69
2022/09/17 04:21:13;;;;;;;9.90;2.15;;;11.10;99.90;;;;;;3060660;19;20014;-70
2022/09/17 04:22:17;;;;;;;12.07;1.92;;;10.60;99.90;;;;;;3060580;19;20019;-70
2022/09/17 04:23:21;;;;;;;13.57;2.20;;;10.40;99.90;;;;;;3060705;19;20363;-70
2022/09/17 04:24:25;;;;;;;16.27;2.40;;;10.80;99.90;;;;;;3060432;19;20486;-70
2022/09/17 04:25:26;;;;;;;14.15;2.42;;;10.50;99.90;;;;;;3060643;19;20478;-70
2022/09/17 04:26:33;;;;;;;14.15;2.40;;;10.60;99.90;;;;;;3060544;19;20033;-70
2022/09/17 04:27:34;;;;;;;14.32;2.22;;;10.90;99.90;;;;;;3060668;19;20366;-70
2022/09/17 04:28:38;;;;;;;10.73;1.80;;;10.40;99.90;;;;;;3060267;19;20007;-70
2022/09/17 04:29:40;;;;;;;11.60;2.17;;;10.70;99.90;;;;;;3060348;19;20185;-69
2022/09/17 04:30:44;;;;;;;8.35;1.80;;;10.80;99.90;;;;;;3060607;19;20367;-69
2022/09/17 04:31:46;;;;;;;11.10;1.85;;;10.50;99.90;;;;;;3060534;19;20077;-69
2022/09/17 04:32:49;;;;;;;14.00;1.80;;;10.50;99.90;;;;;;3060410;19;20026;-70
2022/09/17 04:33:51;;;;;;;10.20;2.05;;;10.80;99.90;;;;;;3062042;19;20031;-69
2022/09/17 04:34:55;;;;;;;11.93;2.00;;;10.40;99.90;;;;;;3060435;19;20501;-70
2022/09/17 04:35:56;;;;;;;11.68;1.80;;;10.20;99.90;;;;;;3060525;19;20010;-69
2022/09/17 04:37:01;;;;;;;11.40;1.88;;;10.50;99.90;;;;;;3060060;19;20037;-70
2022/09/17 04:38:02;;;;;;;11.85;1.90;;;;;;;;;;3060689;19;20006;-69
2022/09/17 04:39:08;;;;;;;;;;;10.40;99.90;;;;;;3060832;19;20010;-69
2022/09/17 04:40:10;;;;;;;9.20;2.10;;;10.40;99.90;;;;;;3060653;19;19937;-69
2022/09/17 04:41:14;;;;;;;12.05;2.45;;;10.50;99.90;;;;;;3060425;19;20021;-70
2022/09/17 04:42:15;;;;;;;15.13;1.95;;;10.20;99.90;;;;;;3060420;19;20002;-70
2022/09/17 04:43:19;;;;;;;12.50;2.38;;;10.30;99.90;;;;;;3060158;19;20347;-70
2022/09/17 04:44:20;;;;;;;11.75;2.03;;;10.40;99.90;;;;;;3060586;19;20025;-69
2022/09/17 04:45:25;;;;;;;10.90;2.13;;;10.30;99.90;;;;;;3060324;19;20014;-69
2022/09/17 04:46:26;;;;;;;12.52;2.10;;;;;;;;;;3059552;19;20371;-70
2022/09/17 04:47:30;;;;;;;12.73;2.17;;;10.30;99.90;;;;;;3058922;19;20021;-70
2022/09/17 04:48:31;;;;;;;9.60;2.17;;;10.20;99.90;;;;;;3060351;19;20010;-69
2022/09/17 04:49:35;;;;;;;11.85;1.92;;;10.70;99.90;;;;;;3060100;19;20019;-70
2022/09/17 04:50:36;;;;;;;13.55;2.20;;;10.30;99.90;;;;;;3059468;19;20466;-70
2022/09/17 04:51:40;;;;;;;14.02;1.90;;;10.30;99.90;;;;;;3059859;19;20021;-69
2022/09/17 04:52:42;;;;;;;14.60;2.30;;;10.30;99.90;;;;;;3060367;19;20399;-69
2022/09/17 04:53:46;;;;;;;9.38;2.40;;;10.30;99.90;;;;;;3060081;19;20029;-70
2022/09/17 04:54:50;;;;;;;13.23;2.47;;;10.20;99.90;;;;;;3060157;19;20014;-70
2022/09/17 04:55:54;;;;;;;12.27;2.03;;;10.60;99.90;;;;;;3058644;19;20082;-70
2022/09/17 04:56:55;;;;;;;14.85;2.40;;;10.40;99.90;;;;;;3060046;19;20014;-70
2022/09/17 04:57:59;;;;;;;14.57;2.60;;;10.20;99.90;;;;;;3060185;19;20018;-70
2022/09/17 04:59:00;;;;;;;9.75;1.67;;;10.10;99.90;;;;;;3060178;19;20018;-70
2022/09/17 05:00:05;;;;;;;7.25;1.70;;;10.10;99.90;;;;;;3059961;19;20047;-70
2022/09/17 05:01:06;;;;;;;12.90;2.33;;;10.20;99.90;;;;;;3060184;19;20130;-70
2022/09/17 05:02:10;;;;;;;11.18;1.80;;;10.20;99.90;;;;;;3060162;19;19995;-69
2022/09/17 05:03:11;;;;;;;6.85;1.70;;;10.30;99.90;;;;;;3060337;19;20002;-70
2022/09/17 05:04:15;;;;;;;8.68;2.13;;;10.40;99.90;;;;;;3060134;19;20070;-69
2022/09/17 05:05:18;;;;;;;10.45;1.80;;;10.30;99.90;;;;;;3060135;19;20018;-69
2022/09/17 05:06:22;;;;;;;11.55;1.70;;;10.20;99.90;;;;;;3059912;19;20007;-70
2022/09/17 05:07:23;;;;;;;8.32;1.88;;;10.60;99.90;;;;;;3059996;19;20492;-69
2022/09/17 05:08:27;;;;;;;8.18;1.90;;;;;;;;;;3060255;19;20083;-71
2022/09/17 05:09:28;;;;;;;10.27;1.80;;;10.20;99.90;;;;;;3060288;19;20487;-70
2022/09/17 05:10:35;;;;;;;6.65;1.60;;;10.10;99.90;;;;;;3059217;19;20033;-71
2022/09/17 05:11:36;;;;;;;8.88;1.98;;;10.10;99.90;;;;;;3059928;19;20332;-70
2022/09/17 05:12:40;;;;;;;9.25;1.90;;;10.60;99.90;;;;;;3059771;19;20043;-70
2022/09/17 05:13:42;;;;;;;9.65;2.00;;;10.30;99.90;;;;;;3060195;19;20006;-70
2022/09/17 05:14:45;;;;;;;7.90;1.60;;;10.20;99.90;;;;;;3059895;19;20018;-70
2022/09/17 05:15:47;;;;;;;12.20;1.80;;;10.40;99.90;;;;;;3059055;19;20018;-70
2022/09/17 05:16:51;;;;;;;10.25;1.60;;;10.20;99.90;;;;;;3059738;19;20482;-70
2022/09/17 05:17:53;;;;;;;11.20;2.00;;;10.00;99.90;;;;;;3059298;19;20006;-70
2022/09/17 05:18:57;;;;;;;15.40;1.90;;;10.40;99.90;;;;;;3059909;19;20021;-71
2022/09/17 05:19:58;;;;;;;11.40;1.73;;;10.20;99.90;;;;;;3059179;19;20447;-69
2022/09/17 05:21:02;;;;;;;9.82;2.17;;;10.30;99.90;;;;;;3059080;19;20011;-70
2022/09/17 05:22:03;;;;;;;11.95;1.92;;;10.50;99.90;;;;;;3059820;19;20003;-70
2022/09/17 05:23:07;;;;;;;8.15;1.98;;;10.20;99.90;;;;;;3059747;19;20024;-70
2022/09/17 05:24:09;;;;;;;9.10;1.70;;;;;;;;;;3059969;19;20007;-70
2022/09/17 05:25:13;;;;;;;8.65;2.17;;;10.50;99.90;;;;;;3059595;19;20117;-70
2022/09/17 05:26:17;;;;;;;11.57;2.30;;;10.10;99.90;;;;;;3059752;19;20010;-70
2022/09/17 05:27:21;;;;;;;10.00;1.70;;;10.20;99.90;;;;;;3059723;19;20018;-71
2022/09/17 05:28:23;;;;;;;12.40;2.17;;;10.70;99.90;;;;;;3059660;19;20082;-70
2022/09/17 05:29:26;;;;;;;13.05;1.80;;;10.10;99.90;;;;;;3059756;19;20035;-70
2022/09/17 05:30:29;;;;;;;8.60;2.10;;;10.30;99.90;;;;;;3059137;19;20040;-70
2022/09/17 05:31:33;;;;;;;13.05;2.13;;;10.50;99.90;;;;;;3059694;19;20021;-70
2022/09/17 05:32:35;;;;;;;11.23;1.98;;;10.10;99.90;;;;;;3059740;19;20018;-70
2022/09/17 05:33:39;;;;;;;9.32;1.80;;;10.40;99.90;;;;;;3059703;19;20014;-70
2022/09/17 05:34:40;;;;;;;9.73;1.58;;;;;;;;;;3059679;19;20013;-70
2022/09/17 05:35:45;;;;;;;12.73;1.98;;;10.60;99.90;;;;;;3059538;19;20007;-70
2022/09/17 05:36:48;;;;;;;12.35;1.95;;;10.40;99.90;;;;;;3059489;19;20015;-70
2022/09/17 05:37:51;;;;;;;9.85;2.47;;;10.40;99.90;;;;;;3058638;19;20077;-70
2022/09/17 05:38:53;;;;;;;10.95;1.80;;;10.40;99.90;;;;;;3058884;19;20361;-69
2022/09/17 05:39:57;;;;;;;14.95;2.13;;;10.30;99.90;;;;;;3059707;19;20033;-70
2022/09/17 05:41:01;;;;;;;7.25;1.70;;;10.30;99.90;;;;;;3059522;19;20014;-70